createdAt,value
2022-10-11T00:01:21.042Z,7.67
2022-10-11T00:03:47.643Z,7.66
2022-10-11T00:06:14.171Z,7.65
2022-10-11T00:08:40.704Z,7.67
2022-10-11T00:11:08.168Z,7.65
2022-10-11T00:13:34.945Z,7.64
2022-10-11T00:16:01.879Z,7.64
2022-10-11T00:18:29.598Z,7.62
2022-10-11T00:21:08.872Z,7.61
2022-10-11T00:23:36.376Z,7.61
2022-10-11T00:26:07.621Z,7.59
2022-10-11T00:28:36.291Z,7.57
2022-10-11T00:31:08.713Z,7.56
2022-10-11T00:33:36.650Z,7.54
2022-10-11T00:36:05.196Z,7.53
2022-10-11T00:38:32.249Z,7.51
2022-10-11T00:41:00.183Z,7.51
2022-10-11T00:43:29.354Z,7.49
2022-10-11T00:48:50.801Z,7.40
2022-10-11T00:51:23.764Z,7.43
2022-10-11T00:53:51.672Z,7.42
2022-10-11T00:56:27.612Z,7.40
2022-10-11T00:58:55.849Z,7.39
2022-10-11T01:01:22.514Z,7.38
2022-10-11T01:03:49.276Z,7.37
2022-10-11T01:06:16.012Z,7.35
2022-10-11T01:08:43.311Z,7.33
2022-10-11T01:11:14.951Z,7.32
2022-10-11T01:13:58.317Z,7.31
2022-10-11T01:16:42.693Z,7.28
2022-10-11T01:21:53.983Z,7.29
2022-10-11T01:30:32.093Z,7.23
2022-10-11T01:33:13.462Z,7.19
2022-10-11T01:35:48.784Z,7.19
2022-10-11T01:38:38.621Z,7.12
2022-10-11T01:41:09.413Z,7.03
2022-10-11T01:43:39.438Z,7.08
2022-10-11T01:46:08.761Z,7.09
2022-10-11T01:48:48.724Z,7.07
2022-10-11T01:51:15.961Z,7.07
2022-10-11T01:57:00.984Z,7.01
2022-10-11T02:06:04.455Z,6.87
2022-10-11T02:11:16.292Z,7.42
2022-10-11T02:13:50.717Z,7.05
2022-10-11T02:16:22.294Z,6.96
2022-10-11T02:18:52.954Z,6.89
2022-10-11T02:21:22.058Z,6.85
2022-10-11T02:23:53.855Z,6.81
2022-10-11T02:26:21.948Z,6.80
2022-10-11T02:28:52.581Z,6.78
2022-10-11T02:31:20.736Z,6.77
2022-10-11T02:33:55.721Z,6.76
2022-10-11T02:36:30.181Z,6.76
2022-10-11T02:39:12.329Z,6.73
2022-10-11T02:41:40.738Z,6.74
2022-10-11T02:44:13.429Z,6.74
2022-10-11T02:46:41.519Z,6.72
2022-10-11T02:49:08.900Z,6.72
2022-10-11T02:51:36.217Z,6.69
2022-10-11T02:54:02.796Z,6.65
2022-10-11T02:56:29.343Z,6.63
2022-10-11T02:58:56.024Z,6.62
2022-10-11T03:01:22.726Z,6.59
2022-10-11T03:03:49.318Z,6.58
2022-10-11T03:06:15.979Z,6.57
2022-10-11T03:08:42.704Z,6.55
2022-10-11T03:11:09.259Z,6.53
2022-10-11T03:13:35.802Z,6.51
2022-10-11T03:16:03.921Z,6.50
2022-10-11T03:18:31.262Z,6.48
2022-10-11T03:20:57.792Z,6.45
2022-10-11T03:23:24.365Z,6.42
2022-10-11T03:25:52.104Z,6.42
2022-10-11T03:28:19.614Z,6.41
2022-10-11T03:30:50.906Z,6.41
2022-10-11T03:33:18.084Z,6.40
2022-10-11T03:35:45.964Z,6.38
2022-10-11T03:38:15.093Z,6.34
2022-10-11T03:40:43.067Z,6.32
2022-10-11T03:43:10.588Z,6.30
2022-10-11T03:45:37.626Z,6.28
2022-10-11T03:48:04.515Z,6.26
2022-10-11T03:50:31.287Z,6.23
2022-10-11T03:52:57.847Z,6.22
2022-10-11T03:55:24.454Z,6.20
2022-10-11T03:57:50.992Z,6.18
2022-10-11T04:00:17.727Z,6.17
2022-10-11T04:02:44.453Z,6.16
2022-10-11T04:05:12.664Z,6.15
2022-10-11T04:07:40.092Z,6.15
2022-10-11T04:10:07.296Z,6.12
2022-10-11T04:12:34.510Z,6.11
2022-10-11T04:15:01.028Z,6.08
2022-10-11T04:17:27.549Z,6.04
2022-10-11T04:19:54.081Z,6.01
2022-10-11T04:22:20.894Z,5.97
2022-10-11T04:24:47.453Z,5.93
2022-10-11T04:27:13.980Z,5.91
2022-10-11T04:29:40.540Z,5.88
2022-10-11T04:32:07.148Z,5.87
2022-10-11T04:34:33.721Z,5.83
2022-10-11T04:37:00.296Z,5.81
2022-10-11T04:39:26.810Z,5.79
2022-10-11T04:41:53.364Z,5.78
2022-10-11T04:44:19.894Z,5.77
2022-10-11T04:46:46.435Z,5.76
2022-10-11T04:49:12.982Z,5.76
2022-10-11T04:51:39.515Z,5.75
2022-10-11T04:54:06.099Z,5.74
2022-10-11T04:56:32.714Z,5.73
2022-10-11T04:58:59.230Z,5.70
2022-10-11T05:01:25.781Z,5.69
2022-10-11T05:03:52.321Z,5.66
2022-10-11T05:06:18.973Z,5.62
2022-10-11T05:08:45.629Z,5.58
2022-10-11T05:11:15.785Z,5.55
2022-10-11T05:13:43.945Z,5.53
2022-10-11T05:16:11.777Z,5.51
2022-10-11T05:18:39.563Z,5.50
2022-10-11T05:23:43.116Z,5.50
2022-10-11T05:26:09.847Z,5.50
2022-10-11T05:28:36.781Z,5.50
2022-10-11T05:31:04.093Z,5.49
2022-10-11T05:33:30.782Z,5.49
2022-10-11T05:35:57.319Z,5.48
2022-10-11T05:38:24.029Z,5.49
2022-10-11T05:40:51.329Z,5.49
2022-10-11T05:43:18.358Z,5.49
2022-10-11T05:45:45.450Z,5.50
2022-10-11T05:48:13.066Z,5.48
2022-10-11T05:50:39.928Z,5.48
2022-10-11T05:53:06.915Z,5.46
2022-10-11T05:55:42.981Z,5.45
2022-10-11T05:58:14.091Z,5.45
2022-10-11T06:00:41.334Z,5.44
2022-10-11T06:03:10.492Z,5.43
2022-10-11T06:05:37.174Z,5.42
2022-10-11T06:08:06.127Z,5.42
2022-10-11T06:10:33.138Z,5.38
2022-10-11T06:12:59.773Z,5.36
2022-10-11T06:15:26.625Z,5.36
2022-10-11T06:17:53.267Z,5.35
2022-10-11T06:20:19.836Z,5.35
2022-10-11T06:22:46.413Z,5.34
2022-10-11T06:25:12.981Z,5.35
2022-10-11T06:27:39.513Z,5.34
2022-10-11T06:30:07.407Z,5.35
2022-10-11T06:32:34.040Z,5.35
2022-10-11T06:35:00.580Z,5.38
2022-10-11T06:37:27.117Z,5.39
2022-10-11T06:39:53.644Z,5.42
2022-10-11T06:42:20.240Z,5.44
2022-10-11T06:44:46.785Z,5.45
2022-10-11T06:47:13.328Z,5.47
2022-10-11T06:49:39.883Z,5.50
2022-10-11T06:52:06.444Z,5.53
2022-10-11T06:54:32.981Z,5.56
2022-10-11T06:56:59.535Z,5.59
2022-10-11T06:59:26.111Z,5.63
2022-10-11T07:01:52.616Z,5.70
2022-10-11T07:04:19.147Z,5.75
2022-10-11T07:06:45.664Z,5.79
2022-10-11T07:09:12.240Z,5.85
2022-10-11T07:11:38.917Z,5.91
2022-10-11T07:14:07.904Z,5.98
2022-10-11T07:16:36.381Z,6.03
2022-10-11T07:19:04.922Z,6.10
2022-10-11T07:21:33.970Z,6.16
2022-10-11T07:24:01.246Z,6.23
2022-10-11T07:26:31.447Z,6.29
2022-10-11T07:29:00.665Z,6.36
2022-10-11T07:31:27.406Z,6.46
2022-10-11T07:33:54.269Z,6.59
2022-10-11T07:36:25.563Z,6.71
2022-10-11T07:38:52.124Z,6.83
2022-10-11T07:41:18.791Z,6.97
2022-10-11T07:43:47.790Z,7.10
2022-10-11T07:46:14.389Z,7.24
2022-10-11T07:48:41.749Z,7.39
2022-10-11T07:54:04.704Z,7.68
2022-10-11T07:56:33.721Z,7.87
2022-10-11T07:59:03.622Z,8.18
2022-10-11T08:01:31.110Z,8.53
2022-10-11T08:03:58.901Z,8.80
2022-10-11T08:06:29.821Z,9.13
2022-10-11T08:08:59.464Z,9.38
2022-10-11T08:11:28.934Z,9.74
2022-10-11T08:13:55.778Z,10.29
2022-10-11T08:16:22.293Z,10.88
2022-10-11T08:18:48.996Z,11.41
2022-10-11T08:21:17.817Z,12.00
2022-10-11T08:23:44.587Z,12.48
2022-10-11T08:26:11.472Z,13.01
2022-10-11T08:28:38.550Z,13.61
2022-10-11T08:31:05.631Z,14.10
2022-10-11T08:33:32.640Z,14.79
2022-10-11T08:35:59.199Z,15.71
2022-10-11T08:38:25.746Z,16.66
2022-10-11T08:40:55.853Z,17.55
2022-10-11T08:46:24.339Z,18.88
2022-10-11T08:48:52.220Z,18.99
2022-10-11T08:51:24.551Z,19.12
2022-10-11T08:54:06.434Z,19.68
2022-10-11T08:56:37.314Z,20.49
2022-10-11T08:59:14.433Z,21.34
2022-10-11T09:01:58.210Z,22.14
2022-10-11T09:04:24.847Z,22.87
2022-10-11T09:07:05.157Z,23.51
2022-10-11T09:10:03.688Z,24.21
2022-10-11T09:12:57.364Z,24.96
2022-10-11T09:26:33.767Z,26.64
2022-10-11T09:29:40.129Z,27.05
2022-10-11T09:32:15.008Z,27.47
2022-10-11T09:34:42.022Z,27.60
2022-10-11T09:39:58.819Z,27.86
2022-10-11T09:42:25.320Z,27.83
2022-10-11T09:44:52.456Z,27.59
2022-10-11T09:47:24.134Z,27.40
2022-10-11T09:49:57.485Z,27.08
2022-10-11T09:52:24.960Z,26.89
2022-10-11T09:54:55.471Z,26.65
2022-10-11T09:57:26.320Z,26.61
2022-10-11T10:00:21.541Z,26.81
2022-10-11T10:02:49.738Z,27.18
2022-10-11T10:10:49.582Z,27.54
2022-10-11T10:15:56.460Z,27.54
2022-10-11T10:21:01.514Z,27.62
2022-10-11T10:23:31.807Z,27.62
2022-10-11T10:26:20.834Z,27.30
2022-10-11T10:35:05.224Z,25.75
2022-10-11T10:37:38.784Z,25.38
2022-10-11T10:40:13.236Z,25.08
2022-10-11T10:42:40.202Z,24.82
2022-10-11T10:45:20.893Z,24.58
2022-10-11T10:48:17.682Z,24.28
2022-10-11T10:53:34.340Z,23.74
2022-10-11T10:56:12.278Z,23.46
2022-10-11T11:01:22.946Z,22.99
2022-10-11T11:04:24.378Z,22.68
2022-10-11T11:06:58.717Z,22.41
2022-10-11T11:18:37.514Z,21.38
2022-10-11T11:23:50.649Z,21.03
2022-10-11T11:26:56.319Z,20.80
2022-10-11T11:30:02.750Z,20.58
2022-10-11T11:35:45.311Z,20.20
2022-10-11T11:38:27.146Z,20.12
2022-10-11T11:40:59.309Z,19.99
2022-10-11T11:43:34.872Z,19.93
2022-10-11T11:46:10.405Z,19.87
2022-10-11T11:48:38.723Z,19.83
2022-10-11T11:59:34.554Z,19.75
2022-10-11T12:04:53.642Z,19.64
2022-10-11T12:07:24.755Z,19.51
2022-10-11T12:10:13.905Z,19.36
2022-10-11T12:12:41.158Z,19.10
2022-10-11T12:18:04.717Z,18.72
2022-10-11T12:20:40.785Z,18.70
2022-10-11T12:31:35.603Z,18.21
2022-10-11T12:42:23.173Z,17.73
2022-10-11T12:48:04.486Z,17.59
2022-10-11T12:56:25.843Z,17.64
2022-10-11T12:59:02.956Z,17.76
2022-10-11T13:01:36.329Z,17.99
2022-10-11T13:04:08.692Z,18.19
2022-10-11T13:06:54.655Z,18.22
2022-10-11T13:12:21.556Z,17.96
2022-10-11T13:15:00.708Z,17.98
2022-10-11T13:17:38.282Z,17.95
2022-10-11T13:22:46.065Z,18.24
2022-10-11T13:25:18.036Z,18.14
2022-10-11T13:27:45.825Z,18.17
2022-10-11T13:30:20.502Z,18.14
2022-10-11T13:32:47.869Z,18.16
2022-10-11T13:35:34.293Z,18.07
2022-10-11T13:38:01.501Z,18.02
2022-10-11T13:40:30.103Z,17.97
2022-10-11T13:42:57.568Z,17.95
2022-10-11T13:45:27.074Z,17.98
2022-10-11T13:47:55.052Z,18.01
2022-10-11T13:50:33.543Z,17.99
2022-10-11T13:58:44.715Z,17.91
2022-10-11T14:01:36.179Z,17.84
2022-10-11T14:04:06.409Z,17.85
2022-10-11T14:09:32.241Z,17.90
2022-10-11T14:15:05.009Z,17.88
2022-10-11T14:17:42.841Z,17.86
2022-10-11T14:22:46.426Z,17.89
2022-10-11T14:25:13.366Z,17.88
2022-10-11T14:27:40.199Z,17.80
2022-10-11T14:30:30.193Z,17.70
2022-10-11T14:32:59.786Z,17.57
2022-10-11T14:35:30.479Z,17.46
2022-10-11T14:37:57.634Z,17.37
2022-10-11T14:40:27.611Z,17.33
2022-10-11T14:42:55.157Z,17.30
2022-10-11T14:45:22.005Z,17.24
2022-10-11T14:47:49.472Z,17.23
2022-10-11T14:52:52.993Z,17.18
2022-10-11T14:55:19.580Z,17.11
2022-10-11T14:57:46.658Z,17.08
2022-10-11T15:00:21.200Z,17.07
2022-10-11T15:02:48.469Z,17.04
2022-10-11T15:05:15.140Z,17.03
2022-10-11T15:07:41.893Z,17.02
2022-10-11T15:12:56.338Z,16.95
2022-10-11T15:15:26.477Z,16.91
2022-10-11T15:17:56.277Z,16.82
2022-10-11T15:23:01.097Z,16.64
2022-10-11T15:25:29.099Z,16.60
2022-10-11T15:27:56.738Z,16.55
2022-10-11T15:30:27.543Z,16.52
2022-10-11T15:32:54.496Z,16.46
2022-10-11T15:35:23.274Z,16.42
2022-10-11T15:37:55.461Z,16.34
2022-10-11T15:43:01.948Z,16.23
2022-10-11T15:45:29.252Z,16.17
2022-10-11T15:47:56.632Z,16.11
2022-10-11T15:50:34.879Z,16.04
2022-10-11T15:55:45.909Z,15.87
2022-10-11T15:58:16.942Z,15.80
2022-10-11T16:00:45.286Z,15.75
2022-10-11T16:03:13.878Z,15.68
2022-10-11T16:05:41.395Z,15.63
2022-10-11T16:08:08.345Z,15.58
2022-10-11T16:10:35.246Z,15.54
2022-10-11T16:13:02.150Z,15.48
2022-10-11T16:15:29.156Z,15.43
2022-10-11T16:17:55.894Z,15.39
2022-10-11T16:20:24.574Z,15.33
2022-10-11T16:22:54.016Z,15.28
2022-10-11T16:25:21.928Z,15.22
2022-10-11T16:27:48.552Z,15.14
2022-10-11T16:30:16.536Z,15.10
2022-10-11T16:32:44.463Z,15.04
2022-10-11T16:35:13.934Z,14.99
2022-10-11T16:37:40.923Z,14.95
2022-10-11T16:40:09.865Z,14.88
2022-10-11T16:42:39.007Z,14.83
2022-10-11T16:45:06.838Z,14.74
2022-10-11T16:47:33.486Z,14.68
2022-10-11T16:50:00.189Z,14.62
2022-10-11T16:52:27.078Z,14.54
2022-10-11T16:54:53.613Z,14.46
2022-10-11T16:57:20.492Z,14.36
2022-10-11T16:59:47.172Z,14.29
2022-10-11T17:02:18.092Z,14.22
2022-10-11T17:04:45.447Z,14.12
2022-10-11T17:07:13.117Z,14.04
2022-10-11T17:09:43.978Z,13.97
2022-10-11T17:12:13.177Z,13.88
2022-10-11T17:14:41.111Z,13.78
2022-10-11T17:17:09.767Z,13.72
2022-10-11T17:19:42.624Z,13.64
2022-10-11T17:22:13.104Z,13.55
2022-10-11T17:24:39.788Z,13.47
2022-10-11T17:27:06.998Z,13.40
2022-10-11T17:29:34.135Z,13.32
2022-10-11T17:32:01.475Z,13.24
2022-10-11T17:34:28.273Z,13.18
2022-10-11T17:36:55.014Z,13.10
2022-10-11T17:39:23.860Z,13.04
2022-10-11T17:41:50.983Z,12.97
2022-10-11T17:44:18.554Z,12.93
2022-10-11T17:46:45.620Z,12.87
2022-10-11T17:49:13.349Z,12.82
2022-10-11T17:51:40.763Z,12.76
2022-10-11T17:54:12.385Z,12.70
2022-10-11T17:56:41.335Z,12.65
2022-10-11T17:59:11.762Z,12.60
2022-10-11T18:01:38.546Z,12.52
2022-10-11T18:04:06.184Z,12.44
2022-10-11T18:06:38.118Z,12.37
2022-10-11T18:09:05.049Z,12.31
2022-10-11T18:11:31.950Z,12.26
2022-10-11T18:13:58.538Z,12.21
2022-10-11T18:16:27.831Z,12.16
2022-10-11T18:18:57.240Z,12.08
2022-10-11T18:21:31.216Z,12.04
2022-10-11T18:24:12.572Z,11.91
2022-10-11T18:26:39.375Z,11.88
2022-10-11T18:29:05.976Z,11.80
2022-10-11T18:31:35.085Z,11.76
2022-10-11T18:34:04.147Z,11.70
2022-10-11T18:36:31.835Z,11.66
2022-10-11T18:39:02.201Z,11.61
2022-10-11T18:41:32.038Z,11.56
2022-10-11T18:44:00.192Z,11.31
2022-10-11T18:46:27.735Z,11.42
2022-10-11T18:48:55.611Z,11.39
2022-10-11T18:51:25.833Z,11.36
2022-10-11T18:53:53.670Z,11.30
2022-10-11T18:56:22.354Z,11.27
2022-10-11T18:58:50.393Z,11.23
2022-10-11T19:01:23.035Z,11.18
2022-10-11T19:03:52.920Z,11.13
2022-10-11T19:06:22.512Z,11.07
2022-10-11T19:08:53.244Z,10.97
2022-10-11T19:11:22.313Z,10.90
2022-10-11T19:13:56.405Z,10.84
2022-10-11T19:16:23.702Z,10.79
2022-10-11T19:18:52.244Z,10.77
2022-10-11T19:21:19.562Z,10.73
2022-10-11T19:23:48.361Z,10.71
2022-10-11T19:26:18.754Z,10.69
2022-10-11T19:28:46.475Z,10.67
2022-10-11T19:31:17.055Z,10.65
2022-10-11T19:33:45.153Z,10.61
2022-10-11T19:36:14.149Z,10.58
2022-10-11T19:38:45.174Z,10.53
2022-10-11T19:41:12.820Z,10.48
2022-10-11T19:43:39.408Z,10.41
2022-10-11T19:46:09.573Z,10.35
2022-10-11T19:48:38.157Z,10.29
2022-10-11T19:53:41.660Z,10.19
2022-10-11T19:56:12.463Z,10.11
2022-10-11T19:58:40.215Z,10.06
2022-10-11T20:01:12.107Z,10.01
2022-10-11T20:03:39.204Z,9.97
2022-10-11T20:06:07.913Z,9.93
2022-10-11T20:08:35.618Z,9.89
2022-10-11T20:11:05.259Z,9.85
2022-10-11T20:13:34.832Z,9.81
2022-10-11T20:18:41.419Z,9.74
2022-10-11T20:21:12.153Z,9.70
2022-10-11T20:26:11.714Z,9.45
2022-10-11T20:28:39.713Z,9.51
2022-10-11T20:31:26.257Z,9.44
2022-10-11T20:33:56.921Z,9.40
2022-10-11T20:36:24.968Z,9.30
2022-10-11T20:38:52.441Z,9.25
2022-10-11T20:41:23.451Z,9.17
2022-10-11T20:43:52.705Z,9.11
2022-10-11T20:46:21.904Z,9.07
2022-10-11T20:48:51.489Z,9.02
2022-10-11T20:51:18.712Z,8.98
2022-10-11T20:53:45.471Z,8.96
2022-10-11T20:56:15.149Z,8.93
2022-10-11T20:58:42.265Z,8.89
2022-10-11T21:03:46.450Z,8.84
2022-10-11T21:06:13.186Z,8.80
2022-10-11T21:08:40.325Z,8.80
2022-10-11T21:11:07.898Z,8.76
2022-10-11T21:13:35.171Z,8.71
2022-10-11T21:16:07.983Z,8.70
2022-10-11T21:18:34.776Z,8.68
2022-10-11T21:21:12.307Z,8.65
2022-10-11T21:23:39.975Z,8.65
2022-10-11T21:26:09.449Z,8.63
2022-10-11T21:28:36.320Z,8.61
2022-10-11T21:31:09.406Z,8.61
2022-10-11T21:33:36.793Z,8.60
2022-10-11T21:36:05.313Z,8.60
2022-10-11T21:38:31.968Z,8.58
2022-10-11T21:40:58.536Z,8.58
2022-10-11T21:43:25.070Z,8.56
2022-10-11T21:45:51.810Z,8.51
2022-10-11T21:48:18.337Z,8.45
2022-10-11T21:50:44.891Z,8.40
2022-10-11T21:53:11.426Z,8.35
2022-10-11T21:55:37.927Z,8.32
2022-10-11T21:58:06.362Z,8.31
2022-10-11T22:00:32.908Z,8.29
2022-10-11T22:02:59.512Z,8.30
2022-10-11T22:05:26.072Z,8.31
2022-10-11T22:07:52.683Z,8.31
2022-10-11T22:10:19.425Z,8.32
2022-10-11T22:12:45.960Z,8.32
2022-10-11T22:15:12.557Z,8.33
2022-10-11T22:17:39.103Z,8.34
2022-10-11T22:20:05.980Z,8.34
2022-10-11T22:22:32.888Z,8.35
2022-10-11T22:24:59.709Z,8.34
2022-10-11T22:27:26.262Z,8.34
2022-10-11T22:29:52.780Z,8.31
2022-10-11T22:32:19.316Z,8.30
2022-10-11T22:34:45.881Z,8.27
2022-10-11T22:37:12.412Z,8.23
2022-10-11T22:39:39.122Z,8.22
2022-10-11T22:42:05.736Z,8.18
2022-10-11T22:44:32.387Z,8.15
2022-10-11T22:46:58.988Z,8.13
2022-10-11T22:49:25.563Z,8.08
2022-10-11T22:51:52.165Z,8.06
2022-10-11T22:54:18.705Z,8.03
2022-10-11T22:56:45.254Z,7.98
2022-10-11T22:59:11.782Z,7.96
2022-10-11T23:01:38.317Z,7.93
2022-10-11T23:04:04.883Z,7.91
2022-10-11T23:06:32.009Z,7.89
2022-10-11T23:08:58.548Z,7.86
2022-10-11T23:11:25.072Z,7.84
2022-10-11T23:13:51.653Z,7.83
2022-10-11T23:16:18.184Z,7.82
2022-10-11T23:18:44.761Z,7.81
2022-10-11T23:21:11.361Z,7.80
2022-10-11T23:23:39.713Z,7.80
2022-10-11T23:26:09.505Z,7.79
2022-10-11T23:28:36.114Z,7.79
2022-10-11T23:31:09.202Z,7.78
2022-10-11T23:33:36.166Z,7.80
2022-10-11T23:36:03.225Z,7.80
2022-10-11T23:38:29.870Z,7.82
2022-10-11T23:40:56.452Z,7.81
2022-10-11T23:43:23.563Z,7.82
2022-10-11T23:45:50.219Z,7.81
2022-10-11T23:48:16.804Z,7.81
2022-10-11T23:50:43.313Z,7.82
2022-10-11T23:53:10.743Z,7.81
2022-10-11T23:55:37.329Z,7.80
2022-10-11T23:58:03.869Z,7.81
